createdAt,value
2019-04-19T00:00:34.804Z,18.02
2019-04-19T00:03:06.444Z,18.10
2019-04-19T00:06:05.057Z,15.72
2019-04-19T00:08:49.194Z,18.30
2019-04-19T00:11:17.680Z,19.60
2019-04-19T00:13:36.724Z,18.67
2019-04-19T00:16:06.864Z,21.20
2019-04-19T00:18:43.830Z,20.02
2019-04-19T00:21:22.951Z,20.05
2019-04-19T00:23:43.421Z,17.67
2019-04-19T00:26:10.778Z,21.48
2019-04-19T00:28:47.712Z,17.57
2019-04-19T00:31:25.221Z,17.20
2019-04-19T00:33:47.821Z,16.23
2019-04-19T00:36:16.449Z,17.27
2019-04-19T00:38:58.199Z,17.37
2019-04-19T00:41:57.344Z,17.32
2019-04-19T00:44:40.285Z,18.65
2019-04-19T00:47:06.576Z,19.23
2019-04-19T00:49:31.985Z,19.90
2019-04-19T00:52:05.474Z,17.67
2019-04-19T00:54:34.382Z,20.35
2019-04-19T00:57:03.035Z,19.65
2019-04-19T00:59:35.639Z,17.85
2019-04-19T01:02:07.517Z,18.30
2019-04-19T01:04:33.133Z,17.37
2019-04-19T01:07:05.329Z,20.20
2019-04-19T01:09:46.663Z,18.57
2019-04-19T01:12:17.711Z,20.85
2019-04-19T01:14:47.037Z,20.05
2019-04-19T01:17:22.828Z,19.30
2019-04-19T01:19:45.477Z,26.48
2019-04-19T01:22:17.660Z,17.57
2019-04-19T01:24:45.255Z,21.35
2019-04-19T01:27:19.406Z,20.62
2019-04-19T01:29:48.866Z,18.60
2019-04-19T01:32:19.433Z,18.65
2019-04-19T01:34:54.389Z,21.57
2019-04-19T01:37:22.439Z,18.52
2019-04-19T01:40:05.856Z,18.73
2019-04-19T01:42:39.776Z,22.58
2019-04-19T01:45:21.210Z,20.08
2019-04-19T01:47:59.592Z,18.30
2019-04-19T01:50:38.442Z,18.87
2019-04-19T01:53:14.901Z,19.77
2019-04-19T01:55:29.709Z,17.87
2019-04-19T01:58:03.536Z,18.40
2019-04-19T02:00:35.749Z,18.85
2019-04-19T02:03:02.403Z,18.30
2019-04-19T02:05:30.142Z,20.00
2019-04-19T02:08:04.671Z,19.52
2019-04-19T02:11:25.122Z,18.23
2019-04-19T02:13:56.787Z,18.05
2019-04-19T02:16:19.701Z,18.65
2019-04-19T02:18:45.299Z,21.48
2019-04-19T02:21:24.695Z,17.00
2019-04-19T02:23:51.237Z,15.48
2019-04-19T02:26:21.205Z,15.95
2019-04-19T02:28:49.334Z,16.35
2019-04-19T02:31:47.539Z,18.52
2019-04-19T02:34:21.605Z,16.85
2019-04-19T02:37:00.915Z,17.30
2019-04-19T02:39:24.150Z,16.65
2019-04-19T02:44:17.527Z,18.52
2019-04-19T03:08:50.370Z,17.48
2019-04-19T03:11:37.626Z,18.42
2019-04-19T03:14:03.192Z,20.35
2019-04-19T03:16:45.490Z,19.98
2019-04-19T03:19:07.397Z,21.80
2019-04-19T03:21:42.993Z,26.00
2019-04-19T03:24:12.324Z,20.80
2019-04-19T03:26:41.593Z,26.52
2019-04-19T03:29:08.802Z,22.90
2019-04-19T03:32:06.520Z,24.77
2019-04-19T03:34:31.221Z,25.17
2019-04-19T03:36:47.843Z,24.67
2019-04-19T03:39:23.151Z,26.77
2019-04-19T03:42:05.012Z,25.27
2019-04-19T03:44:37.364Z,22.22
2019-04-19T03:47:10.172Z,25.17
2019-04-19T03:49:38.693Z,24.70
2019-04-19T03:52:15.626Z,26.85
2019-04-19T03:54:39.239Z,24.70
2019-04-19T03:57:11.604Z,26.45
2019-04-19T03:59:29.006Z,27.32
2019-04-19T04:02:01.047Z,27.55
2019-04-19T04:04:33.260Z,25.77
2019-04-19T04:07:09.051Z,34.50
2019-04-19T04:09:43.627Z,26.75
2019-04-19T04:12:38.183Z,24.65
2019-04-19T04:15:17.425Z,25.68
2019-04-19T04:17:39.528Z,24.45
2019-04-19T04:20:09.501Z,26.05
2019-04-19T04:22:44.071Z,26.30
2019-04-19T04:25:20.328Z,27.10
2019-04-19T04:27:56.782Z,25.80
2019-04-19T04:30:25.813Z,27.07
2019-04-19T04:32:56.973Z,27.00
2019-04-19T04:35:31.753Z,27.30
2019-04-19T04:38:00.465Z,29.27
2019-04-19T04:40:21.113Z,38.48
2019-04-19T04:43:04.100Z,30.23
2019-04-19T04:45:49.528Z,37.73
2019-04-19T04:48:25.053Z,33.10
2019-04-19T04:51:04.412Z,37.93
2019-04-19T04:53:24.332Z,33.48
2019-04-19T04:56:03.855Z,28.07
2019-04-19T04:58:34.486Z,30.48
2019-04-19T05:01:07.897Z,36.13
2019-04-19T05:03:51.173Z,34.78
2019-04-19T05:06:21.621Z,28.57
2019-04-19T05:08:50.142Z,27.93
2019-04-19T05:11:24.376Z,29.23
2019-04-19T05:13:55.853Z,28.47
2019-04-19T05:16:34.882Z,31.25
2019-04-19T05:18:59.458Z,39.45
2019-04-19T05:21:29.894Z,29.35
2019-04-19T05:24:04.969Z,32.55
2019-04-19T05:26:38.939Z,29.25
2019-04-19T05:29:02.360Z,26.17
2019-04-19T05:31:28.681Z,28.83
2019-04-19T05:34:12.323Z,34.35
2019-04-19T05:36:45.281Z,27.30
2019-04-19T05:39:26.563Z,34.83
2019-04-19T05:42:13.067Z,25.25
2019-04-19T05:45:15.738Z,26.30
2019-04-19T05:47:28.316Z,27.52
2019-04-19T05:50:00.905Z,26.42
2019-04-19T05:52:35.932Z,29.70
2019-04-19T05:54:45.153Z,33.80
2019-04-19T05:57:37.197Z,24.87
2019-04-19T05:59:54.796Z,29.15
2019-04-19T06:02:26.319Z,25.05
2019-04-19T06:05:11.420Z,26.23
2019-04-19T06:07:37.386Z,27.13
2019-04-19T06:09:49.839Z,25.43
2019-04-19T06:12:23.578Z,28.45
2019-04-19T06:15:13.416Z,23.80
2019-04-19T06:17:56.607Z,23.22
2019-04-19T06:20:28.723Z,23.95
2019-04-19T06:23:03.852Z,26.97
2019-04-19T06:25:39.279Z,22.55
2019-04-19T06:28:14.045Z,21.65
2019-04-19T06:30:37.339Z,28.17
2019-04-19T06:33:07.869Z,25.27
2019-04-19T06:35:30.269Z,23.70
2019-04-19T06:37:48.508Z,25.53
2019-04-19T06:40:24.755Z,26.73
2019-04-19T06:43:01.201Z,24.83
2019-04-19T06:45:35.638Z,23.17
2019-04-19T06:47:58.884Z,24.57
2019-04-19T06:50:30.117Z,25.83
2019-04-19T06:52:53.302Z,26.30
2019-04-19T06:55:28.529Z,26.50
2019-04-19T06:58:01.607Z,22.87
2019-04-19T07:00:40.226Z,23.53
2019-04-19T07:02:54.491Z,27.00
2019-04-19T07:05:37.351Z,22.77
2019-04-19T07:08:38.717Z,23.43
2019-04-19T07:10:54.596Z,27.63
2019-04-19T07:13:16.188Z,24.77
2019-04-19T07:15:53.542Z,24.20
2019-04-19T07:18:21.198Z,24.40
2019-04-19T07:20:44.879Z,23.23
2019-04-19T07:23:21.177Z,27.07
2019-04-19T07:25:55.471Z,28.50
2019-04-19T07:28:08.897Z,27.30
2019-04-19T07:30:32.800Z,25.80
2019-04-19T07:33:11.672Z,26.90
2019-04-19T07:35:54.209Z,27.30
2019-04-19T07:38:27.330Z,28.50
2019-04-19T07:41:03.050Z,25.50
2019-04-19T07:43:23.581Z,28.80
2019-04-19T07:46:08.137Z,30.40
2019-04-19T07:48:40.746Z,30.80
2019-04-19T07:51:18.659Z,26.60
2019-04-19T07:53:46.321Z,25.57
2019-04-19T07:56:21.995Z,28.93
2019-04-19T07:59:02.520Z,31.30
2019-04-19T08:01:45.856Z,29.77
2019-04-19T08:04:24.231Z,28.30
2019-04-19T08:09:13.675Z,26.80
2019-04-19T08:14:09.874Z,28.37
2019-04-19T08:17:22.914Z,28.97
2019-04-19T08:57:59.070Z,29.20
2019-04-19T09:00:52.748Z,23.80
2019-04-19T09:03:06.683Z,22.00
2019-04-19T09:05:42.166Z,30.43
2019-04-19T09:08:17.091Z,20.20
2019-04-19T09:10:48.277Z,17.73
2019-04-19T09:13:22.573Z,18.20
2019-04-19T09:15:40.190Z,18.67
2019-04-19T09:20:44.446Z,17.13
2019-04-19T09:23:12.751Z,19.27
2019-04-19T09:25:50.897Z,15.65
2019-04-19T09:28:46.349Z,23.38
2019-04-19T09:30:55.657Z,17.05
2019-04-19T09:33:20.298Z,18.62
2019-04-19T09:35:49.738Z,14.93
2019-04-19T09:38:20.936Z,15.60
2019-04-19T09:40:52.305Z,17.20
2019-04-19T09:43:33.569Z,16.27
2019-04-19T09:45:47.570Z,15.95
2019-04-19T09:48:36.657Z,14.85
2019-04-19T09:51:04.666Z,15.25
2019-04-19T09:54:00.218Z,13.85
2019-04-19T09:56:11.679Z,12.88
2019-04-19T09:58:38.834Z,15.48
2019-04-19T10:01:06.385Z,15.30
2019-04-19T10:03:42.474Z,16.35
2019-04-19T10:06:06.905Z,14.43
2019-04-19T10:08:35.957Z,14.28
2019-04-19T10:11:05.270Z,14.85
2019-04-19T10:13:35.502Z,12.05
2019-04-19T10:16:16.562Z,10.88
2019-04-19T10:18:54.593Z,10.78
2019-04-19T10:21:38.683Z,10.88
2019-04-19T10:24:12.728Z,8.83
2019-04-19T10:27:01.000Z,10.43
2019-04-19T10:29:34.730Z,11.88
2019-04-19T10:32:10.552Z,10.25
2019-04-19T10:34:40.625Z,10.75
2019-04-19T10:37:10.925Z,12.63
2019-04-19T10:39:41.530Z,15.43
2019-04-19T10:42:10.847Z,10.23
2019-04-19T10:44:40.199Z,10.93
2019-04-19T10:47:10.194Z,12.65
2019-04-19T10:49:46.274Z,10.58
2019-04-19T10:52:35.418Z,12.55
2019-04-19T10:55:08.611Z,9.73
2019-04-19T10:57:38.942Z,14.95
2019-04-19T11:00:09.273Z,12.30
2019-04-19T11:02:38.486Z,10.93
2019-04-19T11:05:09.189Z,9.63
2019-04-19T11:07:40.210Z,9.58
2019-04-19T11:10:09.733Z,8.68
2019-04-19T11:12:39.013Z,8.80
2019-04-19T11:15:08.770Z,7.47
2019-04-19T11:17:38.139Z,6.95
2019-04-19T11:20:20.259Z,7.25
2019-04-19T11:22:39.676Z,8.20
2019-04-19T11:25:10.232Z,7.72
2019-04-19T11:27:42.890Z,8.05
2019-04-19T11:30:24.232Z,7.90
2019-04-19T11:32:54.925Z,7.78
2019-04-19T11:35:25.450Z,7.60
2019-04-19T11:37:55.158Z,10.95
2019-04-19T11:40:24.884Z,8.23
2019-04-19T11:42:59.415Z,10.20
2019-04-19T11:45:30.204Z,8.28
2019-04-19T11:48:00.858Z,9.70
2019-04-19T11:50:31.567Z,8.95
2019-04-19T11:53:20.578Z,8.98
2019-04-19T11:56:16.369Z,9.00
2019-04-19T11:58:46.674Z,8.73
2019-04-19T12:01:19.528Z,7.12
2019-04-19T12:03:50.142Z,8.35
2019-04-19T12:06:20.589Z,8.03
2019-04-19T12:08:51.993Z,6.67
2019-04-19T12:11:24.189Z,9.15
2019-04-19T12:13:54.170Z,7.40
2019-04-19T12:16:23.456Z,9.53
2019-04-19T12:18:53.881Z,7.03
2019-04-19T12:21:23.503Z,7.42
2019-04-19T12:23:52.939Z,7.35
2019-04-19T12:26:24.060Z,7.10
2019-04-19T12:28:53.492Z,9.13
2019-04-19T12:31:23.407Z,8.03
2019-04-19T12:33:53.370Z,12.20
2019-04-19T12:36:23.405Z,7.30
2019-04-19T12:38:53.747Z,8.10
2019-04-19T12:41:24.065Z,6.83
2019-04-19T12:43:54.079Z,8.48
2019-04-19T12:46:23.360Z,7.15
2019-04-19T12:48:52.426Z,7.87
2019-04-19T12:51:21.877Z,7.17
2019-04-19T12:53:52.386Z,8.10
2019-04-19T12:56:22.389Z,8.53
2019-04-19T12:58:51.556Z,11.08
2019-04-19T13:01:24.002Z,7.00
2019-04-19T13:04:08.586Z,8.18
2019-04-19T13:06:38.020Z,7.10
2019-04-19T13:09:09.064Z,7.35
2019-04-19T13:11:38.855Z,8.08
2019-04-19T13:14:08.280Z,7.67
2019-04-19T13:16:37.564Z,7.22
2019-04-19T13:19:08.011Z,7.25
2019-04-19T13:21:38.483Z,6.97
2019-04-19T13:24:08.775Z,11.25
2019-04-19T13:26:39.060Z,7.25
2019-04-19T13:29:09.503Z,7.45
2019-04-19T13:31:40.758Z,10.20
2019-04-19T13:34:11.829Z,8.53
2019-04-19T13:37:00.787Z,9.38
2019-04-19T13:40:02.047Z,7.47
2019-04-19T13:42:37.136Z,10.78
2019-04-19T13:45:14.002Z,9.10
2019-04-19T13:47:40.722Z,8.83
2019-04-19T13:50:16.879Z,6.87
2019-04-19T13:52:40.537Z,6.17
2019-04-19T13:55:10.660Z,8.38
2019-04-19T13:57:43.628Z,7.60
2019-04-19T14:00:18.671Z,9.75
2019-04-19T14:02:49.516Z,7.53
2019-04-19T14:05:19.816Z,7.92
2019-04-19T14:07:49.017Z,9.23
2019-04-19T14:10:19.098Z,7.97
2019-04-19T14:12:49.151Z,6.83
2019-04-19T14:15:18.334Z,7.35
2019-04-19T14:17:47.645Z,7.58
2019-04-19T14:20:29.720Z,6.85
2019-04-19T14:22:47.598Z,6.97
2019-04-19T14:25:21.101Z,7.53
2019-04-19T14:27:51.234Z,7.10
2019-04-19T14:30:21.484Z,7.70
2019-04-19T14:32:53.661Z,6.80
2019-04-19T14:35:23.882Z,6.47
2019-04-19T14:37:53.255Z,6.40
2019-04-19T14:40:23.817Z,7.58
2019-04-19T14:42:54.264Z,6.50
2019-04-19T14:45:25.960Z,6.12
2019-04-19T14:48:09.112Z,6.37
2019-04-19T14:50:46.305Z,7.17
2019-04-19T14:53:10.247Z,6.75
2019-04-19T14:55:41.376Z,5.87
2019-04-19T14:58:10.408Z,7.40
2019-04-19T15:00:43.082Z,8.05
2019-04-19T15:03:26.977Z,6.08
2019-04-19T15:05:59.655Z,8.10
2019-04-19T15:08:30.768Z,8.08
2019-04-19T15:11:01.080Z,7.90
2019-04-19T15:13:30.639Z,7.22
2019-04-19T15:15:59.991Z,8.55
2019-04-19T15:18:29.816Z,7.67
2019-04-19T15:21:07.699Z,6.67
2019-04-19T15:23:29.983Z,6.65
2019-04-19T15:25:58.957Z,7.70
2019-04-19T15:28:28.947Z,6.95
2019-04-19T15:30:58.466Z,6.90
2019-04-19T15:33:27.630Z,11.08
2019-04-19T15:35:59.513Z,8.20
2019-04-19T15:38:27.970Z,5.95
2019-04-19T15:40:58.421Z,6.47
2019-04-19T15:43:27.876Z,6.65
2019-04-19T15:45:57.062Z,8.43
2019-04-19T15:48:33.268Z,9.38
2019-04-19T15:51:10.326Z,10.68
2019-04-19T15:53:29.864Z,7.00
2019-04-19T15:56:00.034Z,7.08
2019-04-19T15:58:29.308Z,8.23
2019-04-19T16:01:01.734Z,6.42
2019-04-19T16:03:52.039Z,6.47
2019-04-19T16:06:40.557Z,6.80
2019-04-19T16:09:31.144Z,7.55
2019-04-19T16:12:19.678Z,7.53
2019-04-19T16:14:49.957Z,8.30
2019-04-19T16:17:20.969Z,7.70
2019-04-19T16:19:51.359Z,6.65
2019-04-19T16:22:24.509Z,6.03
2019-04-19T16:24:54.690Z,8.40
2019-04-19T16:27:27.351Z,6.33
2019-04-19T16:29:59.904Z,6.97
2019-04-19T16:32:28.798Z,6.37
2019-04-19T16:34:59.473Z,6.50
2019-04-19T16:37:28.700Z,8.65
2019-04-19T16:39:58.217Z,8.63
2019-04-19T16:42:27.413Z,8.53
2019-04-19T16:44:56.446Z,8.35
2019-04-19T16:47:25.421Z,8.00
2019-04-19T16:49:54.490Z,6.97
2019-04-19T16:52:24.716Z,6.75
2019-04-19T16:54:56.031Z,8.45
2019-04-19T16:57:29.640Z,6.55
2019-04-19T16:59:55.653Z,9.20
2019-04-19T17:02:24.977Z,8.58
2019-04-19T17:04:54.643Z,10.40
2019-04-19T17:07:24.747Z,7.80
2019-04-19T17:09:54.018Z,6.00
2019-04-19T17:12:24.220Z,7.65
2019-04-19T17:15:01.583Z,6.05
2019-04-19T17:17:46.853Z,9.53
2019-04-19T17:20:47.909Z,7.83
2019-04-19T17:23:17.186Z,11.50
2019-04-19T17:25:46.736Z,8.48
2019-04-19T17:28:16.949Z,8.60
2019-04-19T17:30:48.301Z,7.58
2019-04-19T17:33:18.010Z,7.50
2019-04-19T17:35:48.300Z,10.08
2019-04-19T17:38:28.032Z,8.70
2019-04-19T17:40:50.394Z,9.25
2019-04-19T17:43:19.686Z,8.15
2019-04-19T17:45:50.383Z,8.00
2019-04-19T17:48:20.741Z,9.08
2019-04-19T17:50:49.925Z,9.48
2019-04-19T17:53:20.434Z,8.20
2019-04-19T17:55:51.890Z,13.78
2019-04-19T17:58:21.327Z,10.60
2019-04-19T18:00:51.242Z,10.30
2019-04-19T18:03:21.157Z,12.18
2019-04-19T18:05:50.240Z,14.18
2019-04-19T18:08:25.365Z,11.83
2019-04-19T18:10:53.971Z,13.15
2019-04-19T18:13:21.272Z,16.87
2019-04-19T18:15:51.084Z,14.75
2019-04-19T18:18:20.960Z,10.28
2019-04-19T18:20:54.136Z,8.65
2019-04-19T18:23:31.887Z,13.22
2019-04-19T18:25:52.971Z,13.58
2019-04-19T18:28:25.229Z,10.28
2019-04-19T18:30:55.713Z,14.95
2019-04-19T18:33:51.847Z,11.28
2019-04-19T18:36:18.276Z,10.45
2019-04-19T18:38:44.147Z,13.40
2019-04-19T18:41:13.483Z,13.85
2019-04-19T18:43:58.685Z,11.88
2019-04-19T18:46:15.093Z,14.23
2019-04-19T18:48:47.724Z,14.80
2019-04-19T18:51:24.039Z,9.65
2019-04-19T18:54:00.470Z,14.75
2019-04-19T18:56:22.182Z,10.93
2019-04-19T18:58:50.228Z,11.18
2019-04-19T19:01:25.773Z,16.05
2019-04-19T19:03:51.799Z,10.63
2019-04-19T19:06:31.804Z,14.43
2019-04-19T19:08:57.800Z,15.60
2019-04-19T19:11:24.745Z,15.50
2019-04-19T19:13:53.367Z,14.15
2019-04-19T19:16:27.139Z,12.78
2019-04-19T19:18:57.232Z,17.95
2019-04-19T19:21:26.819Z,12.93
2019-04-19T19:24:20.709Z,10.70
2019-04-19T19:26:32.538Z,9.68
2019-04-19T19:28:58.110Z,15.32
2019-04-19T19:31:27.387Z,17.20
2019-04-19T19:33:58.125Z,13.72
2019-04-19T19:36:34.219Z,12.93
2019-04-19T19:39:08.559Z,12.03
2019-04-19T19:42:19.872Z,13.83
2019-04-19T19:44:13.247Z,14.58
2019-04-19T19:47:01.471Z,11.15
2019-04-19T19:51:49.889Z,11.12
2019-04-19T19:54:43.084Z,14.25
2019-04-19T19:57:02.943Z,9.88
2019-04-19T19:59:27.159Z,10.43
2019-04-19T20:02:04.959Z,10.10
2019-04-19T20:04:19.129Z,11.35
2019-04-19T20:06:58.136Z,18.57
2019-04-19T20:09:32.052Z,8.88
2019-04-19T20:12:04.072Z,11.15
2019-04-19T20:14:35.092Z,9.53
2019-04-19T20:17:07.962Z,13.48
2019-04-19T20:19:33.611Z,11.30
2019-04-19T20:22:06.959Z,13.75
2019-04-19T20:24:46.042Z,17.60
2019-04-19T20:27:16.246Z,15.20
2019-04-19T20:29:43.582Z,18.27
2019-04-19T20:32:17.278Z,12.53
2019-04-19T20:34:43.719Z,12.03
2019-04-19T20:37:16.705Z,15.78
2019-04-19T20:39:46.617Z,15.10
2019-04-19T20:42:25.195Z,15.48
2019-04-19T20:44:55.443Z,12.95
2019-04-19T20:47:23.127Z,12.80
2019-04-19T20:49:48.289Z,16.73
2019-04-19T20:52:36.476Z,13.85
2019-04-19T20:55:16.601Z,17.17
2019-04-19T20:57:52.197Z,12.53
2019-04-19T21:00:14.453Z,15.10
2019-04-19T21:02:44.026Z,14.15
2019-04-19T21:05:13.685Z,14.25
2019-04-19T21:07:47.649Z,14.20
2019-04-19T21:10:16.769Z,14.95
2019-04-19T21:12:46.990Z,17.07
2019-04-19T21:15:23.810Z,12.15
2019-04-19T21:17:49.992Z,16.05
2019-04-19T21:20:25.961Z,13.90
2019-04-19T21:22:50.615Z,14.60
2019-04-19T21:25:32.862Z,15.43
2019-04-19T21:27:55.176Z,16.73
2019-04-19T21:30:23.398Z,15.60
2019-04-19T21:32:56.897Z,12.65
2019-04-19T21:35:25.028Z,15.48
2019-04-19T21:37:54.899Z,19.90
2019-04-19T21:40:32.680Z,15.68
2019-04-19T21:43:02.995Z,16.52
2019-04-19T21:45:37.793Z,13.20
2019-04-19T21:48:03.392Z,17.77
2019-04-19T21:50:40.579Z,12.65
2019-04-19T21:53:08.576Z,13.20
2019-04-19T21:55:40.519Z,20.17
2019-04-19T21:58:10.378Z,17.62
2019-04-19T22:01:02.504Z,13.43
2019-04-19T22:03:28.293Z,21.40
2019-04-19T22:06:01.946Z,17.55
2019-04-19T22:08:33.344Z,14.85
2019-04-19T22:11:02.443Z,16.35
2019-04-19T22:13:37.827Z,14.58
2019-04-19T22:16:03.987Z,15.68
2019-04-19T22:18:39.471Z,18.35
2019-04-19T22:21:06.760Z,13.35
2019-04-19T22:23:42.937Z,16.02
2019-04-19T22:26:15.371Z,19.10
2019-04-19T22:28:37.413Z,18.48
2019-04-19T22:31:07.885Z,18.10
2019-04-19T22:33:38.566Z,17.57
2019-04-19T22:36:09.303Z,15.72
2019-04-19T22:38:43.586Z,14.55
2019-04-19T22:41:13.847Z,14.05
2019-04-19T22:43:42.660Z,19.50
2019-04-19T22:46:15.379Z,13.65
2019-04-19T22:48:53.298Z,18.82
2019-04-19T22:51:18.460Z,15.45
2019-04-19T22:53:46.702Z,21.07
2019-04-19T22:56:22.978Z,14.58
2019-04-19T22:58:47.841Z,22.48
2019-04-19T23:01:29.646Z,13.10
2019-04-19T23:04:05.732Z,19.23
2019-04-19T23:06:32.405Z,15.65
2019-04-19T23:09:01.004Z,15.23
2019-04-19T23:11:30.116Z,17.95
2019-04-19T23:13:59.115Z,17.70
2019-04-19T23:16:29.171Z,20.27
2019-04-19T23:19:01.353Z,20.40
2019-04-19T23:21:29.062Z,20.20
2019-04-19T23:24:04.022Z,20.00
2019-04-19T23:26:53.046Z,15.60
2019-04-19T23:29:02.325Z,18.92
2019-04-19T23:31:40.067Z,18.77
2019-04-19T23:34:05.735Z,19.05
2019-04-19T23:36:33.544Z,25.97
2019-04-19T23:39:06.370Z,16.45
2019-04-19T23:41:35.042Z,19.40
2019-04-19T23:44:12.340Z,21.77
2019-04-19T23:46:37.464Z,17.52
2019-04-19T23:49:10.444Z,21.70
2019-04-19T23:51:39.030Z,18.57
2019-04-19T23:54:15.115Z,20.95
2019-04-19T23:56:58.359Z,19.12
2019-04-19T23:59:15.504Z,16.12
